Time;durP1;ratioP1;P1;durP2;ratioP2;P2;SDS_P1;SDS_P2;PMS_P1;PMS_P2;Temp;Humidity;BMP_temperature;BMP_pressure;BME280_temperature;BME280_humidity;BME280_pressure;Samples;Min_cycle;Max_cycle;Signal;HPM_P1;HPM_P2
2021/04/07 00:00:23;;;;;;;0.00;0.00;;;15.60;56.20;;;;;;4214994;28;20145;-44
2021/04/07 00:02:44;;;;;;;0.00;0.00;;;15.80;55.80;;;;;;4214057;28;20155;-46
2021/04/07 00:05:09;;;;;;;0.00;0.00;;;15.90;55.50;;;;;;4215001;28;20097;-43
2021/04/07 00:07:30;;;;;;;0.28;0.28;;;16.00;55.20;;;;;;4215087;28;20509;-42
2021/04/07 00:09:51;;;;;;;0.00;0.00;;;16.20;55.00;;;;;;4214921;28;20063;-42
2021/04/07 00:12:13;;;;;;;0.00;0.00;;;16.40;54.40;;;;;;4214717;28;20079;-42
2021/04/07 00:14:33;;;;;;;0.00;0.00;;;16.60;53.90;;;;;;4214733;28;20054;-43
2021/04/07 00:16:54;;;;;;;0.00;0.00;;;16.70;53.50;;;;;;4214510;28;20117;-48
2021/04/07 00:19:15;;;;;;;0.10;0.10;;;16.70;53.50;;;;;;4214732;28;20048;-49
2021/04/07 00:21:36;;;;;;;0.00;0.00;;;16.60;53.70;;;;;;4213326;28;20056;-43
2021/04/07 00:23:57;;;;;;;0.00;0.00;;;16.50;54.00;;;;;;4214634;28;20410;-43
2021/04/07 00:26:20;;;;;;;0.20;0.20;;;16.40;54.40;;;;;;4214794;28;20457;-43
2021/04/07 00:28:41;;;;;;;0.00;0.00;;;16.30;54.70;;;;;;4214650;28;20056;-43
2021/04/07 00:31:03;;;;;;;0.20;0.20;;;16.30;54.60;;;;;;4214244;28;20671;-43
2021/04/07 00:33:23;;;;;;;0.00;0.00;;;16.30;54.70;;;;;;4214582;28;20047;-47
2021/04/07 00:35:44;;;;;;;0.00;0.00;;;16.20;54.80;;;;;;4214562;28;20076;-43
2021/04/07 00:38:05;;;;;;;0.00;0.00;;;16.10;55.00;;;;;;4214446;28;20044;-43
2021/04/07 00:40:26;;;;;;;5.28;0.65;;;16.00;55.20;;;;;;4214302;28;20044;-44
2021/04/07 00:42:51;;;;;;;0.00;0.00;;;16.00;55.40;;;;;;4214277;28;20056;-43
2021/04/07 00:45:15;;;;;;;0.00;0.00;;;16.10;55.10;;;;;;4214018;28;20575;-46
2021/04/07 00:47:37;;;;;;;0.00;0.00;;;16.20;54.60;;;;;;4214297;28;20071;-48
2021/04/07 00:49:57;;;;;;;;;;;16.30;54.30;;;;;;4214672;28;20051;-43
2021/04/07 00:52:18;;;;;;;0.00;0.00;;;16.40;54.30;;;;;;4214178;28;19924;-47
2021/04/07 00:54:40;;;;;;;0.00;0.00;;;16.40;54.20;;;;;;4213139;28;20055;-43
2021/04/07 00:57:01;;;;;;;0.00;0.00;;;16.40;54.30;;;;;;4214331;28;20055;-43
2021/04/07 00:59:23;;;;;;;0.00;0.00;;;16.30;54.40;;;;;;4214153;28;20047;-45
2021/04/07 01:01:44;;;;;;;0.00;0.00;;;16.30;54.50;;;;;;4213393;28;20109;-42
2021/04/07 01:04:06;;;;;;;0.00;0.00;;;16.40;54.20;;;;;;4214053;28;20052;-44
2021/04/07 01:06:27;;;;;;;0.65;0.65;;;16.50;54.00;;;;;;4213777;28;20575;-42
2021/04/07 01:08:48;;;;;;;0.00;0.00;;;16.40;54.10;;;;;;4213888;28;20426;-43
2021/04/07 01:11:10;;;;;;;0.00;0.00;;;16.40;54.30;;;;;;4213585;28;20125;-48
2021/04/07 01:13:31;;;;;;;0.50;0.28;;;16.20;54.40;;;;;;4213896;28;20060;-43
2021/04/07 01:15:53;;;;;;;0.00;0.00;;;16.10;54.70;;;;;;4213773;28;20056;-44
2021/04/07 01:18:14;;;;;;;0.00;0.00;;;16.00;55.10;;;;;;4213726;28;20051;-47
2021/04/07 01:20:35;;;;;;;0.00;0.00;;;15.80;55.30;;;;;;4213569;28;20040;-47
2021/04/07 01:22:59;;;;;;;0.00;0.00;;;15.80;55.40;;;;;;4213500;28;20515;-47
2021/04/07 01:25:21;;;;;;;0.40;0.40;;;15.90;55.20;;;;;;4213695;28;20055;-43
2021/04/07 01:27:42;;;;;;;0.00;0.00;;;16.10;54.90;;;;;;4213780;28;20048;-43
2021/04/07 01:30:05;;;;;;;0.00;0.00;;;16.10;54.70;;;;;;4213339;28;20052;-44
2021/04/07 01:32:26;;;;;;;0.00;0.00;;;16.10;54.60;;;;;;4213225;28;20060;-44
2021/04/07 01:34:47;;;;;;;0.00;0.00;;;16.20;54.40;;;;;;4211669;28;20525;-43
2021/04/07 01:37:10;;;;;;;1.45;1.02;;;16.30;54.20;;;;;;4213179;28;20051;-43
2021/04/07 01:39:31;;;;;;;0.00;0.00;;;16.30;54.10;;;;;;4209609;28;20055;-43
2021/04/07 01:41:53;;;;;;;0.00;0.00;;;16.30;54.30;;;;;;4213588;28;20055;-43
2021/04/07 01:44:16;;;;;;;0.00;0.00;;;16.20;54.40;;;;;;4213155;28;20075;-43
2021/04/07 01:46:38;;;;;;;2.63;0.90;;;16.10;54.70;;;;;;4213282;28;20056;-43
2021/04/07 01:49:00;;;;;;;0.40;0.40;;;16.00;54.90;;;;;;4213221;28;20055;-44
2021/04/07 01:51:22;;;;;;;0.00;0.00;;;16.20;54.50;;;;;;4213175;28;20490;-43
2021/04/07 01:53:42;;;;;;;0.00;0.00;;;16.40;54.00;;;;;;4213248;28;20055;-46
2021/04/07 01:56:04;;;;;;;0.00;0.00;;;16.50;53.60;;;;;;4213105;28;20059;-44
2021/04/07 01:58:31;;;;;;;0.00;0.00;;;16.60;53.60;;;;;;4212744;28;20112;-44
2021/04/07 02:00:52;;;;;;;0.05;0.05;;;16.60;53.40;;;;;;4212982;28;20062;-47
2021/04/07 02:03:12;;;;;;;0.00;0.00;;;16.60;53.40;;;;;;4213093;28;20048;-43
2021/04/07 02:05:34;;;;;;;0.00;0.00;;;16.50;53.50;;;;;;4213083;28;20409;-47
2021/04/07 02:07:55;;;;;;;0.15;0.15;;;16.40;53.90;;;;;;4213097;28;20055;-48
2021/04/07 02:10:15;;;;;;;0.00;0.00;;;16.40;54.00;;;;;;4213064;28;20422;-42
2021/04/07 02:12:36;;;;;;;0.00;0.00;;;16.40;53.80;;;;;;4212892;28;20514;-43
2021/04/07 02:14:58;;;;;;;;;;;16.40;53.80;;;;;;4211851;28;20052;-43
2021/04/07 02:17:19;;;;;;;0.00;0.00;;;16.40;53.90;;;;;;4212612;28;19969;-44
2021/04/07 02:19:41;;;;;;;0.00;0.00;;;16.30;53.90;;;;;;4212742;28;20506;-43
2021/04/07 02:22:06;;;;;;;1.13;0.25;;;16.40;54.00;;;;;;4211443;28;20546;-45
2021/04/07 02:24:27;;;;;;;0.00;0.00;;;16.40;54.00;;;;;;4212726;28;20060;-43
2021/04/07 02:26:48;;;;;;;0.00;0.00;;;16.30;54.00;;;;;;4212824;28;20047;-43
2021/04/07 02:29:10;;;;;;;0.47;0.47;;;16.30;54.20;;;;;;4212534;28;20075;-43
2021/04/07 02:31:32;;;;;;;0.00;0.00;;;16.30;54.30;;;;;;4212544;28;20044;-42
2021/04/07 02:33:54;;;;;;;0.00;0.00;;;16.20;54.40;;;;;;4212404;28;20434;-45
2021/04/07 02:36:15;;;;;;;0.00;0.00;;;16.10;54.70;;;;;;4212431;28;20132;-44
2021/04/07 02:38:36;;;;;;;0.00;0.00;;;16.00;54.90;;;;;;4212612;28;20051;-43
2021/04/07 02:40:57;;;;;;;0.00;0.00;;;15.90;55.10;;;;;;4211626;28;20063;-46
2021/04/07 02:43:18;;;;;;;0.00;0.00;;;15.90;55.30;;;;;;4212530;28;20061;-42
2021/04/07 02:45:39;;;;;;;0.00;0.00;;;16.10;54.90;;;;;;4206325;28;20411;-45
2021/04/07 02:48:01;;;;;;;0.47;0.47;;;16.30;54.40;;;;;;4211755;28;20048;-42
2021/04/07 02:50:22;;;;;;;0.00;0.00;;;16.40;54.00;;;;;;4212582;28;20052;-44
2021/04/07 02:52:43;;;;;;;;;;;16.50;53.90;;;;;;4212783;28;20800;-42
2021/04/07 02:55:05;;;;;;;;;;;16.40;54.10;;;;;;4212635;28;20044;-44
2021/04/07 02:57:26;;;;;;;0.00;0.00;;;16.30;54.20;;;;;;4212118;28;20435;-43
2021/04/07 02:59:48;;;;;;;0.00;0.00;;;16.10;54.50;;;;;;4212274;28;20055;-43
2021/04/07 03:02:10;;;;;;;0.00;0.00;;;16.20;54.70;;;;;;4195535;28;20334;-44
2021/04/07 03:04:32;;;;;;;0.00;0.00;;;16.20;54.50;;;;;;4195605;28;20056;-44
2021/04/07 03:06:52;;;;;;;0.00;0.00;;;16.30;54.40;;;;;;4195717;28;20049;-52
2021/04/07 03:09:16;;;;;;;0.00;0.00;;;16.30;54.20;;;;;;4202156;28;20109;-44
2021/04/07 03:11:37;;;;;;;0.00;0.00;;;16.30;54.20;;;;;;4212244;28;20154;-43
2021/04/07 03:13:58;;;;;;;0.00;0.00;;;16.40;54.10;;;;;;4211512;28;20045;-43
2021/04/07 03:16:19;;;;;;;0.00;0.00;;;16.30;54.20;;;;;;4211306;28;20073;-44
2021/04/07 03:18:40;;;;;;;0.00;0.00;;;16.20;54.40;;;;;;4212346;28;20133;-43
2021/04/07 03:21:02;;;;;;;0.00;0.00;;;16.20;54.60;;;;;;4211924;28;20074;-44
2021/04/07 03:23:24;;;;;;;0.00;0.00;;;16.20;54.60;;;;;;4210822;28;20135;-44
2021/04/07 03:25:44;;;;;;;0.00;0.00;;;16.20;54.70;;;;;;4212211;28;20059;-43
2021/04/07 03:28:06;;;;;;;0.00;0.00;;;16.10;54.80;;;;;;4211997;28;20080;-44
2021/04/07 03:30:26;;;;;;;0.00;0.00;;;16.00;55.00;;;;;;4212214;28;20072;-44
2021/04/07 03:32:48;;;;;;;0.43;0.43;;;16.00;55.00;;;;;;4211874;28;20048;-43
2021/04/07 03:35:09;;;;;;;0.00;0.00;;;16.20;54.70;;;;;;4212111;28;20453;-43
2021/04/07 03:37:31;;;;;;;0.00;0.00;;;16.20;54.50;;;;;;4212106;28;20056;-43
2021/04/07 03:39:52;;;;;;;0.00;0.00;;;16.30;54.40;;;;;;4212186;28;20052;-44
2021/04/07 03:42:13;;;;;;;0.00;0.00;;;16.20;54.50;;;;;;4212069;28;20105;-43
2021/04/07 03:44:34;;;;;;;0.00;0.00;;;16.10;54.60;;;;;;4211089;28;20510;-43
2021/04/07 03:46:55;;;;;;;0.00;0.00;;;16.00;54.80;;;;;;4211773;28;20563;-46
2021/04/07 03:49:16;;;;;;;;;;;15.90;55.00;;;;;;4212169;28;20052;-47
2021/04/07 03:51:39;;;;;;;0.00;0.00;;;15.80;55.30;;;;;;4212028;28;19989;-45
2021/04/07 03:54:03;;;;;;;0.00;0.00;;;15.80;55.40;;;;;;4211926;28;20433;-43
2021/04/07 03:56:23;;;;;;;0.00;0.00;;;16.00;55.20;;;;;;4212033;28;20105;-43
2021/04/07 03:58:44;;;;;;;0.00;0.00;;;16.10;54.90;;;;;;4213733;28;20105;-44
2021/04/07 04:01:05;;;;;;;0.00;0.00;;;16.30;54.50;;;;;;4215121;28;20067;-43
2021/04/07 04:03:26;;;;;;;0.00;0.00;;;16.40;54.10;;;;;;4214607;28;20060;-43
2021/04/07 04:05:47;;;;;;;0.00;0.00;;;16.50;53.80;;;;;;4214927;28;20078;-43
2021/04/07 04:08:08;;;;;;;0.00;0.00;;;16.60;53.50;;;;;;4214723;28;20056;-43
2021/04/07 04:10:29;;;;;;;0.00;0.00;;;16.80;53.20;;;;;;4215069;28;20845;-44
2021/04/07 04:12:53;;;;;;;0.00;0.00;;;16.80;53.00;;;;;;4214740;28;20505;-44
2021/04/07 04:15:16;;;;;;;0.00;0.00;;;16.80;53.00;;;;;;4214808;28;20052;-44
2021/04/07 04:17:37;;;;;;;0.00;0.00;;;16.70;53.20;;;;;;4214467;28;20040;-43
2021/04/07 04:19:58;;;;;;;0.00;0.00;;;16.60;53.50;;;;;;4214733;28;20058;-44
2021/04/07 04:22:19;;;;;;;0.00;0.00;;;16.70;53.40;;;;;;4214381;28;20560;-45
2021/04/07 04:24:40;;;;;;;0.00;0.00;;;16.80;53.10;;;;;;4214609;28;20521;-45
2021/04/07 04:27:03;;;;;;;0.00;0.00;;;16.90;52.90;;;;;;4214398;28;20498;-49
2021/04/07 04:29:24;;;;;;;0.00;0.00;;;16.80;53.00;;;;;;4197901;28;20110;-47
2021/04/07 04:31:45;;;;;;;0.00;0.00;;;16.80;53.10;;;;;;4197788;28;20487;-45
2021/04/07 04:34:06;;;;;;;0.00;0.00;;;16.70;53.30;;;;;;4213786;28;20131;-47
2021/04/07 04:36:27;;;;;;;0.00;0.00;;;16.70;53.40;;;;;;4214496;28;20066;-48
2021/04/07 04:38:51;;;;;;;0.00;0.00;;;16.60;53.50;;;;;;4214579;28;20087;-47
2021/04/07 04:41:12;;;;;;;0.00;0.00;;;16.50;53.70;;;;;;4214460;28;20052;-49
2021/04/07 04:43:34;;;;;;;0.00;0.00;;;16.40;53.90;;;;;;4214401;28;20052;-43
2021/04/07 04:45:55;;;;;;;0.00;0.00;;;16.50;53.90;;;;;;4214269;28;20101;-44
2021/04/07 04:48:17;;;;;;;0.00;0.00;;;16.60;53.60;;;;;;4213780;28;20520;-44
2021/04/07 04:50:38;;;;;;;0.00;0.00;;;16.60;53.60;;;;;;4214289;28;20131;-46
2021/04/07 04:52:59;;;;;;;0.45;0.45;;;16.60;53.60;;;;;;4213833;28;20399;-46
2021/04/07 04:55:20;;;;;;;0.00;0.00;;;16.60;53.50;;;;;;4214267;28;20109;-47
2021/04/07 04:57:44;;;;;;;0.70;0.70;;;16.70;53.50;;;;;;4214174;28;20059;-44
2021/04/07 05:00:08;;;;;;;0.00;0.00;;;16.60;53.50;;;;;;4214186;28;20756;-50
2021/04/07 05:02:28;;;;;;;0.00;0.00;;;16.50;53.70;;;;;;4213656;28;20043;-44
2021/04/07 05:04:49;;;;;;;0.00;0.00;;;16.50;53.70;;;;;;4213826;28;20567;-49
2021/04/07 05:07:13;;;;;;;0.00;0.00;;;16.50;53.80;;;;;;4213797;28;20133;-45
2021/04/07 05:09:35;;;;;;;0.00;0.00;;;16.40;54.00;;;;;;4213111;28;20521;-44
2021/04/07 05:11:57;;;;;;;0.00;0.00;;;16.40;54.20;;;;;;4213875;28;20494;-49
2021/04/07 05:14:18;;;;;;;0.00;0.00;;;16.50;54.00;;;;;;4213861;28;20615;-47
2021/04/07 05:16:40;;;;;;;0.10;0.10;;;16.70;53.70;;;;;;4213753;28;20113;-45
2021/04/07 05:19:04;;;;;;;0.00;0.00;;;16.80;53.30;;;;;;4213708;28;20498;-51
2021/04/07 05:21:25;;;;;;;0.00;0.00;;;16.90;53.10;;;;;;4213649;28;20055;-49
2021/04/07 05:23:49;;;;;;;0.00;0.00;;;16.80;53.10;;;;;;4213508;28;20078;-48
2021/04/07 05:26:09;;;;;;;0.00;0.00;;;16.80;53.10;;;;;;4213755;28;20060;-46
2021/04/07 05:28:34;;;;;;;0.00;0.00;;;16.90;53.10;;;;;;4213896;28;20521;-47
2021/04/07 05:31:00;;;;;;;0.00;0.00;;;16.80;53.20;;;;;;4213667;28;20305;-50
2021/04/07 05:33:22;;;;;;;0.00;0.00;;;16.70;53.50;;;;;;4213632;28;20052;-45
2021/04/07 05:35:43;;;;;;;0.00;0.00;;;16.70;53.70;;;;;;4213523;28;20051;-47
2021/04/07 05:38:07;;;;;;;0.00;0.00;;;16.70;53.80;;;;;;4208184;28;20085;-47
2021/04/07 05:40:28;;;;;;;0.40;0.40;;;16.60;54.00;;;;;;4211068;28;20052;-46
2021/04/07 05:43:01;;;;;;;0.65;0.65;;;16.50;54.00;;;;;;4212012;28;20056;-48
2021/04/07 05:45:22;;;;;;;0.10;0.10;;;16.50;54.30;;;;;;4212740;28;20135;-44
2021/04/07 05:47:43;;;;;;;0.00;0.00;;;16.30;54.30;;;;;;4196682;28;20560;-43
2021/04/07 05:50:05;;;;;;;0.00;0.00;;;16.20;54.40;;;;;;4199101;28;20051;-46
2021/04/07 05:52:26;;;;;;;0.32;0.32;;;16.10;54.70;;;;;;4210274;28;20353;-43
2021/04/07 05:54:47;;;;;;;0.20;0.20;;;16.00;54.70;;;;;;4213285;28;20059;-45
2021/04/07 05:57:08;;;;;;;7.38;2.53;;;16.00;54.60;;;;;;4212659;28;20078;-44
2021/04/07 05:59:29;;;;;;;0.00;0.00;;;16.00;54.50;;;;;;4200470;28;20048;-44
2021/04/07 06:01:50;;;;;;;0.75;0.75;;;16.00;54.40;;;;;;4202922;28;20514;-44
2021/04/07 06:04:11;;;;;;;3.33;1.90;;;16.20;54.00;;;;;;4212644;28;20059;-44
2021/04/07 06:06:33;;;;;;;0.10;0.10;;;16.30;53.50;;;;;;4213451;28;20059;-44
2021/04/07 06:08:54;;;;;;;0.15;0.15;;;16.30;53.30;;;;;;4212941;28;20048;-44
2021/04/07 06:11:17;;;;;;;0.00;0.00;;;16.20;53.30;;;;;;4213115;28;20063;-43
2021/04/07 06:13:40;;;;;;;0.00;0.00;;;16.20;53.50;;;;;;4212673;28;20084;-42
2021/04/07 06:16:01;;;;;;;0.55;0.43;;;16.30;53.20;;;;;;4212866;28;20097;-44
2021/04/07 06:18:22;;;;;;;0.00;0.00;;;16.40;53.10;;;;;;4197898;28;20102;-43
2021/04/07 06:20:48;;;;;;;0.00;0.00;;;16.40;52.90;;;;;;4212300;28;20136;-43
2021/04/07 06:23:11;;;;;;;0.10;0.10;;;16.40;52.80;;;;;;4212629;28;20063;-43
2021/04/07 06:25:35;;;;;;;0.00;0.00;;;16.40;52.90;;;;;;4196415;28;20556;-43
2021/04/07 06:27:58;;;;;;;0.00;0.00;;;16.40;52.80;;;;;;4196147;28;20045;-43
2021/04/07 06:30:23;;;;;;;0.00;0.00;;;16.40;52.70;;;;;;4211793;28;20048;-42
2021/04/07 06:32:45;;;;;;;0.80;0.80;;;16.20;52.70;;;;;;4212373;28;20086;-43
2021/04/07 06:35:07;;;;;;;0.00;0.00;;;16.20;52.70;;;;;;4212549;28;20063;-42
2021/04/07 06:37:28;;;;;;;0.00;0.00;;;16.40;52.50;;;;;;4212342;28;20048;-42
2021/04/07 06:39:50;;;;;;;0.00;0.00;;;16.40;52.40;;;;;;4212637;28;20411;-43
2021/04/07 06:42:12;;;;;;;0.00;0.00;;;16.40;52.50;;;;;;4212711;28;20082;-43
2021/04/07 06:44:34;;;;;;;0.00;0.00;;;16.40;52.60;;;;;;4194665;28;20063;-43
2021/04/07 06:46:55;;;;;;;0.00;0.00;;;16.40;52.30;;;;;;4195436;28;20144;-45
2021/04/07 06:49:19;;;;;;;0.00;0.00;;;16.40;52.30;;;;;;4208684;28;20488;-43
2021/04/07 06:51:41;;;;;;;0.00;0.00;;;16.40;52.40;;;;;;4212426;28;20715;-42
2021/04/07 06:54:03;;;;;;;0.00;0.00;;;16.40;52.50;;;;;;4212212;28;20047;-43
2021/04/07 06:56:26;;;;;;;0.00;0.00;;;16.50;52.40;;;;;;4195658;28;20099;-43
2021/04/07 06:58:47;;;;;;;0.00;0.00;;;16.60;52.10;;;;;;4195690;28;20102;-44
2021/04/07 07:01:08;;;;;;;0.00;0.00;;;16.60;51.90;;;;;;4195886;28;20547;-44
2021/04/07 07:03:30;;;;;;;0.00;0.00;;;16.60;51.80;;;;;;4195634;28;20475;-44
2021/04/07 07:05:54;;;;;;;0.00;0.00;;;16.60;51.90;;;;;;4195540;28;20450;-50
2021/04/07 07:08:32;;;;;;;0.00;0.00;;;16.60;51.70;;;;;;4195535;28;20059;-42
2021/04/07 07:10:56;;;;;;;0.00;0.00;;;16.70;51.60;;;;;;4195617;28;20045;-48
2021/04/07 07:13:19;;;;;;;0.00;0.00;;;16.70;51.80;;;;;;4195443;28;20064;-49
2021/04/07 07:15:40;;;;;;;0.00;0.00;;;16.60;52.00;;;;;;4210658;28;20059;-42
2021/04/07 07:18:01;;;;;;;0.00;0.00;;;16.50;52.10;;;;;;4211691;28;20048;-42
2021/04/07 07:20:25;;;;;;;;;;;16.50;52.10;;;;;;4212687;28;20779;-42
2021/04/07 07:22:46;;;;;;;0.00;0.00;;;16.40;52.60;;;;;;4211783;28;19928;-48
2021/04/07 07:25:12;;;;;;;0.52;0.52;;;16.30;53.40;;;;;;4212147;28;20044;-43
2021/04/07 07:27:38;;;;;;;0.35;0.35;;;16.30;53.40;;;;;;4212322;28;20490;-45
2021/04/07 07:30:00;;;;;;;0.00;0.00;;;16.50;53.10;;;;;;4212357;28;20079;-48
2021/04/07 07:32:32;;;;;;;0.00;0.00;;;16.60;52.60;;;;;;4210899;28;20051;-42
2021/04/07 07:34:53;;;;;;;0.10;0.10;;;16.80;52.40;;;;;;4214936;28;20048;-43
2021/04/07 07:37:27;;;;;;;0.00;0.00;;;16.90;52.00;;;;;;4215379;28;20044;-44
2021/04/07 07:39:48;;;;;;;3.50;2.95;;;17.00;51.70;;;;;;4214171;28;20052;-43
2021/04/07 07:42:11;;;;;;;0.00;0.00;;;17.10;51.50;;;;;;4213266;28;20048;-42
2021/04/07 07:44:36;;;;;;;1.33;0.70;;;17.10;51.50;;;;;;4215323;28;20782;-42
2021/04/07 07:47:07;;;;;;;0.00;0.00;;;17.10;51.60;;;;;;4215225;28;20044;-44
2021/04/07 07:49:28;;;;;;;0.00;0.00;;;17.00;51.60;;;;;;4215256;28;20056;-42
2021/04/07 07:51:50;;;;;;;0.00;0.00;;;17.00;51.80;;;;;;4215090;28;20040;-42
2021/04/07 07:54:16;;;;;;;0.13;0.13;;;16.90;52.80;;;;;;4215201;28;20048;-42
2021/04/07 07:56:40;;;;;;;0.00;0.00;;;16.80;52.20;;;;;;4215198;28;20048;-42
2021/04/07 07:59:01;;;;;;;0.10;0.10;;;16.60;52.50;;;;;;4213640;28;20052;-43
2021/04/07 08:01:42;;;;;;;0.00;0.00;;;16.50;52.90;;;;;;4213768;28;20109;-43
2021/04/07 08:04:08;;;;;;;0.00;0.00;;;16.50;53.00;;;;;;4197176;28;20486;-42
2021/04/07 08:06:29;;;;;;;0.00;0.00;;;16.40;53.10;;;;;;4202739;28;20062;-43
2021/04/07 08:08:50;;;;;;;0.32;0.32;;;16.40;53.10;;;;;;4215102;28;20063;-42
2021/04/07 08:11:11;;;;;;;0.00;0.00;;;16.30;53.30;;;;;;4213541;28;20056;-43
2021/04/07 08:13:34;;;;;;;;;;;16.30;53.30;;;;;;4206291;28;20056;-43
2021/04/07 08:15:57;;;;;;;0.00;0.00;;;16.20;53.30;;;;;;4213856;28;19924;-43
2021/04/07 08:18:18;;;;;;;0.10;0.10;;;16.20;53.50;;;;;;4214537;28;20048;-42
2021/04/07 08:20:41;;;;;;;0.00;0.00;;;16.00;53.70;;;;;;4214349;28;20131;-42
2021/04/07 08:23:05;;;;;;;0.00;0.00;;;16.00;53.90;;;;;;4214537;28;20117;-42
2021/04/07 08:25:27;;;;;;;0.00;0.00;;;15.90;53.90;;;;;;4214659;28;20056;-45
2021/04/07 08:27:52;;;;;;;0.25;0.25;;;15.90;54.10;;;;;;4214772;28;20218;-42
2021/04/07 08:30:14;;;;;;;0.00;0.00;;;15.80;54.40;;;;;;4214498;28;20062;-42
2021/04/07 08:32:37;;;;;;;0.52;0.52;;;15.70;54.70;;;;;;4214505;28;20044;-43
2021/04/07 08:34:59;;;;;;;0.00;0.00;;;15.60;55.10;;;;;;4214579;28;20048;-42
2021/04/07 08:37:31;;;;;;;0.00;0.00;;;15.70;55.00;;;;;;4214260;28;20056;-41
2021/04/07 08:39:53;;;;;;;0.00;0.00;;;15.90;55.30;;;;;;4205340;28;20044;-43
2021/04/07 08:42:14;;;;;;;4.75;1.85;;;16.00;54.50;;;;;;4214378;28;20052;-45
2021/04/07 08:44:35;;;;;;;0.00;0.00;;;16.00;54.30;;;;;;4214420;28;20043;-45
2021/04/07 08:46:59;;;;;;;0.00;0.00;;;15.90;54.30;;;;;;4214494;28;20056;-48
2021/04/07 08:49:34;;;;;;;0.00;0.00;;;15.80;54.60;;;;;;4214367;28;20143;-48
2021/04/07 08:51:55;;;;;;;0.08;0.08;;;15.80;54.70;;;;;;4214245;28;20067;-49
2021/04/07 08:54:19;;;;;;;0.00;0.00;;;15.90;54.90;;;;;;4214269;28;20149;-47
2021/04/07 08:56:40;;;;;;;0.38;0.38;;;15.90;55.00;;;;;;4214387;28;20063;-45
2021/04/07 08:59:05;;;;;;;0.00;0.00;;;15.80;55.20;;;;;;4213680;28;20526;-43
2021/04/07 09:01:32;;;;;;;0.00;0.00;;;15.70;55.40;;;;;;4213901;28;20076;-42
2021/04/07 09:04:05;;;;;;;2.92;1.25;;;15.60;55.60;;;;;;4212949;28;20052;-42
2021/04/07 09:06:26;;;;;;;0.00;0.00;;;15.50;56.00;;;;;;4214307;28;20076;-42
2021/04/07 09:08:53;;;;;;;0.00;0.00;;;15.40;56.20;;;;;;4212861;28;20052;-42
2021/04/07 09:11:29;;;;;;;0.10;0.10;;;15.30;56.40;;;;;;4213790;28;20055;-42
2021/04/07 09:13:50;;;;;;;0.00;0.00;;;15.20;56.70;;;;;;4213795;28;20395;-42
2021/04/07 09:16:11;;;;;;;0.00;0.00;;;15.20;57.00;;;;;;4213905;28;20124;-43
2021/04/07 09:18:35;;;;;;;3.50;1.08;;;15.10;57.00;;;;;;4213900;28;20059;-44
2021/04/07 09:20:57;;;;;;;0.00;0.00;;;15.10;57.10;;;;;;4213736;28;20101;-41
2021/04/07 09:23:24;;;;;;;0.05;0.05;;;15.00;57.20;;;;;;4213643;28;20091;-42
2021/04/07 09:25:48;;;;;;;0.08;0.08;;;15.20;57.00;;;;;;4213826;28;20059;-42
2021/04/07 09:28:10;;;;;;;0.00;0.00;;;15.40;57.30;;;;;;4213408;28;20058;-45
2021/04/07 09:30:39;;;;;;;0.40;0.40;;;15.50;56.30;;;;;;4213677;28;20051;-42
2021/04/07 09:33:00;;;;;;;0.00;0.00;;;15.60;56.00;;;;;;4213578;28;20491;-41
2021/04/07 09:35:21;;;;;;;0.00;0.00;;;15.60;56.00;;;;;;4213614;28;20079;-42
2021/04/07 09:37:42;;;;;;;0.65;0.65;;;15.60;56.00;;;;;;4213503;28;20080;-43
2021/04/07 09:40:04;;;;;;;0.00;0.00;;;15.70;55.70;;;;;;4213482;28;20063;-43
2021/04/07 09:42:25;;;;;;;0.63;0.63;;;15.70;55.50;;;;;;4213441;28;20062;-45
2021/04/07 09:44:48;;;;;;;1.10;1.10;;;15.70;55.60;;;;;;4213309;28;20508;-49
2021/04/07 09:47:12;;;;;;;14.15;0.82;;;15.70;55.30;;;;;;4213001;28;20063;-48
2021/04/07 09:49:33;;;;;;;0.17;0.17;;;15.60;55.10;;;;;;4213398;28;20686;-42
2021/04/07 09:51:54;;;;;;;1.00;1.00;;;15.60;55.10;;;;;;4212795;28;20050;-42
2021/04/07 09:54:19;;;;;;;0.08;0.08;;;15.50;55.30;;;;;;4213357;28;20135;-42
2021/04/07 09:56:54;;;;;;;0.00;0.00;;;15.60;55.40;;;;;;4212567;28;20502;-44
2021/04/07 09:59:20;;;;;;;1.08;0.70;;;15.70;55.00;;;;;;4213175;28;20077;-41
2021/04/07 10:01:42;;;;;;;0.52;0.52;;;15.80;54.70;;;;;;4211955;28;20056;-42
2021/04/07 10:04:03;;;;;;;0.00;0.00;;;15.90;54.70;;;;;;4212762;28;20234;-42
2021/04/07 10:06:26;;;;;;;0.00;0.00;;;15.90;54.60;;;;;;4212135;28;20068;-44
2021/04/07 10:08:58;;;;;;;0.00;0.00;;;15.90;54.60;;;;;;4212251;28;20472;-45
2021/04/07 10:11:21;;;;;;;0.88;0.82;;;15.90;54.50;;;;;;4203773;28;20047;-45
2021/04/07 10:13:43;;;;;;;2.50;0.95;;;15.90;54.40;;;;;;4212708;28;20079;-44
2021/04/07 10:16:13;;;;;;;1.85;1.75;;;16.00;54.30;;;;;;4212804;28;20070;-43
2021/04/07 10:18:38;;;;;;;0.77;0.77;;;16.10;54.60;;;;;;4212734;28;20057;-45
2021/04/07 10:21:12;;;;;;;8.82;5.43;;;16.30;54.80;;;;;;4212145;28;20119;-44
2021/04/07 10:23:33;;;;;;;1.52;1.08;;;16.30;54.50;;;;;;4212486;28;20474;-44
2021/04/07 10:25:55;;;;;;;2.85;2.65;;;16.30;54.50;;;;;;4212816;28;20055;-45
2021/04/07 10:28:19;;;;;;;8.07;4.10;;;16.20;54.50;;;;;;4212639;28;20718;-44
2021/04/07 10:30:43;;;;;;;5.18;4.78;;;16.20;54.50;;;;;;4212702;28;20076;-44
2021/04/07 10:33:06;;;;;;;0.10;0.10;;;16.20;54.60;;;;;;4212432;28;20048;-51
2021/04/07 10:35:31;;;;;;;11.30;4.63;;;16.20;54.30;;;;;;4211600;28;20163;-46
2021/04/07 10:37:54;;;;;;;1.85;1.70;;;16.10;54.20;;;;;;4209279;28;20950;-45
2021/04/07 10:40:19;;;;;;;11.73;5.32;;;16.00;54.20;;;;;;4210141;28;20146;-45
2021/04/07 10:42:40;;;;;;;17.90;2.75;;;16.00;54.30;;;;;;4212662;28;20138;-45
2021/04/07 10:45:02;;;;;;;1.50;1.50;;;15.90;54.40;;;;;;4209081;28;20103;-47
2021/04/07 10:47:23;;;;;;;1.27;1.27;;;15.80;54.50;;;;;;4209020;28;20109;-46
2021/04/07 10:49:54;;;;;;;2.55;2.45;;;15.70;54.70;;;;;;4203978;28;20048;-45
2021/04/07 10:52:16;;;;;;;1.52;1.42;;;15.70;54.90;;;;;;4211562;28;20109;-48
2021/04/07 10:54:37;;;;;;;0.90;0.90;;;15.60;55.00;;;;;;4212318;28;20581;-44
2021/04/07 10:57:03;;;;;;;0.55;0.55;;;15.50;55.00;;;;;;4211791;28;20471;-45
2021/04/07 10:59:27;;;;;;;7.93;4.32;;;15.40;55.10;;;;;;4211799;28;20051;-45
2021/04/07 11:01:50;;;;;;;2.95;1.40;;;15.30;55.30;;;;;;4212410;28;20491;-45
2021/04/07 11:04:13;;;;;;;1.70;0.82;;;15.20;55.40;;;;;;4208528;28;20066;-47
2021/04/07 11:06:34;;;;;;;0.20;0.20;;;15.10;55.70;;;;;;4207132;28;20060;-47
2021/04/07 11:08:56;;;;;;;2.70;2.50;;;15.00;55.70;;;;;;4213747;28;20052;-48
2021/04/07 11:11:21;;;;;;;2.85;2.15;;;15.00;55.80;;;;;;4214832;28;20075;-47
2021/04/07 11:13:42;;;;;;;9.68;0.88;;;14.90;56.00;;;;;;4215687;28;20260;-46
2021/04/07 11:16:09;;;;;;;0.20;0.20;;;14.90;56.20;;;;;;4216025;28;20059;-47
2021/04/07 11:18:30;;;;;;;0.10;0.10;;;14.80;56.50;;;;;;4215493;28;20056;-46
2021/04/07 11:20:53;;;;;;;0.20;0.20;;;14.80;56.70;;;;;;4214579;28;20059;-45
2021/04/07 11:23:14;;;;;;;0.05;0.05;;;14.90;56.60;;;;;;4213978;28;20059;-45
2021/04/07 11:25:36;;;;;;;1.08;0.88;;;15.10;56.00;;;;;;4213784;28;20048;-45
2021/04/07 11:27:58;;;;;;;0.20;0.20;;;15.30;55.50;;;;;;4211656;28;20062;-45
2021/04/07 11:30:20;;;;;;;0.10;0.10;;;15.30;55.00;;;;;;4211729;28;20059;-45
2021/04/07 11:32:44;;;;;;;1.75;0.88;;;15.40;54.70;;;;;;4215205;28;20052;-47
2021/04/07 11:35:31;;;;;;;0.63;0.63;;;15.30;54.80;;;;;;4215184;28;20802;-48
2021/04/07 11:37:54;;;;;;;1.35;1.35;;;15.20;54.90;;;;;;4215255;28;20064;-46
2021/04/07 11:40:40;;;;;;;0.30;0.30;;;15.20;55.10;;;;;;4215394;28;20052;-46
2021/04/07 11:43:06;;;;;;;0.08;0.08;;;15.20;55.20;;;;;;4215346;28;20138;-47
2021/04/07 11:45:27;;;;;;;4.78;0.50;;;15.10;55.40;;;;;;4215260;28;20051;-48
2021/04/07 11:47:51;;;;;;;0.30;0.30;;;15.10;55.40;;;;;;4214695;28;20047;-44
2021/04/07 11:50:13;;;;;;;;;;;15.10;55.70;;;;;;4212405;28;20513;-45
2021/04/07 11:52:34;;;;;;;0.10;0.10;;;15.10;55.70;;;;;;4214994;28;19959;-43
2021/04/07 11:54:55;;;;;;;0.32;0.32;;;15.30;55.50;;;;;;4215795;28;20139;-44
2021/04/07 11:57:19;;;;;;;0.13;0.13;;;15.50;54.80;;;;;;4215053;28;20169;-45
2021/04/07 11:59:41;;;;;;;2.85;1.20;;;15.70;54.50;;;;;;4215150;28;20568;-48
2021/04/07 12:02:02;;;;;;;0.00;0.00;;;15.80;54.30;;;;;;4215209;28;20128;-44
2021/04/07 12:04:27;;;;;;;0.08;0.08;;;15.80;54.00;;;;;;4214956;28;20109;-52
2021/04/07 12:06:47;;;;;;;0.30;0.30;;;15.80;54.00;;;;;;4214730;28;20093;-50
2021/04/07 12:09:09;;;;;;;0.22;0.22;;;15.70;54.10;;;;;;4215054;28;20052;-44
2021/04/07 12:11:31;;;;;;;0.00;0.00;;;15.70;54.20;;;;;;4214604;28;20094;-45
2021/04/07 12:13:55;;;;;;;0.90;0.90;;;15.60;54.00;;;;;;4213627;28;20417;-45
2021/04/07 12:16:17;;;;;;;0.52;0.52;;;15.50;54.20;;;;;;4214386;28;20056;-50
2021/04/07 12:18:38;;;;;;;0.70;0.70;;;15.50;54.20;;;;;;4214470;28;20129;-44
2021/04/07 12:20:59;;;;;;;0.00;0.00;;;15.40;54.50;;;;;;4214456;28;20097;-44
2021/04/07 12:23:20;;;;;;;0.00;0.00;;;15.30;54.50;;;;;;4214501;28;20052;-44